sensor_id;sensor_type;location;lat;lon;timestamp;P1;durP1;ratioP1;P2;durP2;ratioP2
38083;SDS011;23894;51.466;7.444;2023-12-07T00:01:43;36.58;;;23.73;;
38083;SDS011;23894;51.466;7.444;2023-12-07T00:03:44;36.00;;;23.73;;
38083;SDS011;23894;51.466;7.444;2023-12-07T00:05:45;40.00;;;24.73;;
38083;SDS011;23894;51.466;7.444;2023-12-07T00:07:46;34.30;;;23.67;;
38083;SDS011;23894;51.466;7.444;2023-12-07T00:09:47;37.00;;;24.10;;
38083;SDS011;23894;51.466;7.444;2023-12-07T00:11:47;36.75;;;23.95;;
38083;SDS011;23894;51.466;7.444;2023-12-07T00:13:48;35.97;;;23.63;;
38083;SDS011;23894;51.466;7.444;2023-12-07T00:15:49;34.30;;;22.50;;
38083;SDS011;23894;51.466;7.444;2023-12-07T00:17:50;38.55;;;23.35;;
38083;SDS011;23894;51.466;7.444;2023-12-07T00:19:52;36.50;;;23.13;;
38083;SDS011;23894;51.466;7.444;2023-12-07T00:21:53;34.40;;;21.92;;
38083;SDS011;23894;51.466;7.444;2023-12-07T00:23:55;35.58;;;22.08;;
38083;SDS011;23894;51.466;7.444;2023-12-07T00:25:56;33.95;;;22.45;;
38083;SDS011;23894;51.466;7.444;2023-12-07T00:27:58;36.25;;;22.75;;
38083;SDS011;23894;51.466;7.444;2023-12-07T00:29:59;35.85;;;22.42;;
38083;SDS011;23894;51.466;7.444;2023-12-07T00:32:00;36.03;;;22.60;;
38083;SDS011;23894;51.466;7.444;2023-12-07T00:34:01;35.67;;;22.55;;
38083;SDS011;23894;51.466;7.444;2023-12-07T00:36:02;37.88;;;22.83;;
38083;SDS011;23894;51.466;7.444;2023-12-07T00:38:03;36.30;;;22.08;;
38083;SDS011;23894;51.466;7.444;2023-12-07T00:40:06;34.75;;;22.60;;
38083;SDS011;23894;51.466;7.444;2023-12-07T00:42:10;31.70;;;21.17;;
38083;SDS011;23894;51.466;7.444;2023-12-07T00:44:11;32.83;;;22.25;;
38083;SDS011;23894;51.466;7.444;2023-12-07T00:46:12;32.88;;;20.83;;
38083;SDS011;23894;51.466;7.444;2023-12-07T00:48:13;32.42;;;20.63;;
38083;SDS011;23894;51.466;7.444;2023-12-07T00:50:14;33.53;;;20.50;;
38083;SDS011;23894;51.466;7.444;2023-12-07T00:52:15;32.72;;;20.98;;
38083;SDS011;23894;51.466;7.444;2023-12-07T00:54:16;35.00;;;22.40;;
38083;SDS011;23894;51.466;7.444;2023-12-07T00:56:17;34.53;;;20.50;;
38083;SDS011;23894;51.466;7.444;2023-12-07T00:58:18;33.85;;;21.17;;
38083;SDS011;23894;51.466;7.444;2023-12-07T01:00:19;33.70;;;20.63;;
38083;SDS011;23894;51.466;7.444;2023-12-07T01:02:20;30.00;;;19.83;;
38083;SDS011;23894;51.466;7.444;2023-12-07T01:04:20;32.42;;;21.00;;
38083;SDS011;23894;51.466;7.444;2023-12-07T01:06:21;31.85;;;20.15;;
38083;SDS011;23894;51.466;7.444;2023-12-07T01:08:22;33.47;;;20.77;;
38083;SDS011;23894;51.466;7.444;2023-12-07T01:10:23;33.33;;;21.20;;
38083;SDS011;23894;51.466;7.444;2023-12-07T01:12:24;32.45;;;20.85;;
38083;SDS011;23894;51.466;7.444;2023-12-07T01:14:25;33.15;;;21.58;;
38083;SDS011;23894;51.466;7.444;2023-12-07T01:16:26;35.50;;;20.65;;
38083;SDS011;23894;51.466;7.444;2023-12-07T01:18:27;34.88;;;21.42;;
38083;SDS011;23894;51.466;7.444;2023-12-07T01:20:28;34.45;;;21.35;;
38083;SDS011;23894;51.466;7.444;2023-12-07T01:22:29;32.17;;;20.80;;
38083;SDS011;23894;51.466;7.444;2023-12-07T01:24:30;30.87;;;19.50;;
38083;SDS011;23894;51.466;7.444;2023-12-07T01:26:31;33.83;;;20.65;;
38083;SDS011;23894;51.466;7.444;2023-12-07T01:28:32;33.22;;;21.35;;
38083;SDS011;23894;51.466;7.444;2023-12-07T01:30:33;33.15;;;21.63;;
38083;SDS011;23894;51.466;7.444;2023-12-07T01:32:36;36.72;;;22.95;;
38083;SDS011;23894;51.466;7.444;2023-12-07T01:34:37;30.42;;;21.23;;
38083;SDS011;23894;51.466;7.444;2023-12-07T01:36:38;35.58;;;23.60;;
38083;SDS011;23894;51.466;7.444;2023-12-07T01:38:39;35.05;;;22.27;;
38083;SDS011;23894;51.466;7.444;2023-12-07T01:40:40;35.83;;;21.90;;
38083;SDS011;23894;51.466;7.444;2023-12-07T01:42:48;36.50;;;22.27;;
38083;SDS011;23894;51.466;7.444;2023-12-07T01:44:49;35.42;;;22.02;;
38083;SDS011;23894;51.466;7.444;2023-12-07T01:46:50;33.90;;;21.55;;
38083;SDS011;23894;51.466;7.444;2023-12-07T01:48:51;33.00;;;21.27;;
38083;SDS011;23894;51.466;7.444;2023-12-07T01:50:55;33.42;;;21.60;;
38083;SDS011;23894;51.466;7.444;2023-12-07T01:53:00;33.60;;;20.67;;
38083;SDS011;23894;51.466;7.444;2023-12-07T01:55:01;36.28;;;20.40;;
38083;SDS011;23894;51.466;7.444;2023-12-07T01:57:03;33.28;;;20.85;;
38083;SDS011;23894;51.466;7.444;2023-12-07T01:59:04;31.63;;;20.20;;
38083;SDS011;23894;51.466;7.444;2023-12-07T02:01:05;34.15;;;20.58;;
38083;SDS011;23894;51.466;7.444;2023-12-07T02:03:06;29.38;;;19.33;;
38083;SDS011;23894;51.466;7.444;2023-12-07T02:05:07;29.88;;;19.17;;
38083;SDS011;23894;51.466;7.444;2023-12-07T02:07:08;32.92;;;20.13;;
38083;SDS011;23894;51.466;7.444;2023-12-07T02:09:09;30.37;;;19.60;;
38083;SDS011;23894;51.466;7.444;2023-12-07T02:11:10;33.50;;;20.27;;
38083;SDS011;23894;51.466;7.444;2023-12-07T02:13:11;31.55;;;19.40;;
38083;SDS011;23894;51.466;7.444;2023-12-07T02:15:12;33.72;;;20.42;;
38083;SDS011;23894;51.466;7.444;2023-12-07T02:17:14;33.10;;;20.20;;
38083;SDS011;23894;51.466;7.444;2023-12-07T02:19:24;30.15;;;19.40;;
38083;SDS011;23894;51.466;7.444;2023-12-07T02:21:33;32.42;;;19.17;;
38083;SDS011;23894;51.466;7.444;2023-12-07T02:23:35;31.92;;;19.40;;
38083;SDS011;23894;51.466;7.444;2023-12-07T02:25:56;29.08;;;18.88;;
38083;SDS011;23894;51.466;7.444;2023-12-07T02:28:01;31.25;;;18.95;;
38083;SDS011;23894;51.466;7.444;2023-12-07T02:30:02;29.92;;;19.42;;
38083;SDS011;23894;51.466;7.444;2023-12-07T02:32:04;32.50;;;19.98;;
38083;SDS011;23894;51.466;7.444;2023-12-07T02:34:05;34.13;;;19.80;;
38083;SDS011;23894;51.466;7.444;2023-12-07T02:36:06;31.35;;;20.52;;
38083;SDS011;23894;51.466;7.444;2023-12-07T02:38:07;32.03;;;20.70;;
38083;SDS011;23894;51.466;7.444;2023-12-07T02:40:08;30.50;;;19.85;;
38083;SDS011;23894;51.466;7.444;2023-12-07T02:42:10;32.70;;;20.13;;
38083;SDS011;23894;51.466;7.444;2023-12-07T02:44:12;31.33;;;20.08;;
38083;SDS011;23894;51.466;7.444;2023-12-07T02:46:13;31.03;;;19.60;;
38083;SDS011;23894;51.466;7.444;2023-12-07T02:48:14;30.80;;;19.90;;
38083;SDS011;23894;51.466;7.444;2023-12-07T02:50:17;30.95;;;20.45;;
38083;SDS011;23894;51.466;7.444;2023-12-07T02:52:18;32.78;;;20.13;;
38083;SDS011;23894;51.466;7.444;2023-12-07T02:54:19;35.15;;;19.88;;
38083;SDS011;23894;51.466;7.444;2023-12-07T02:56:20;32.90;;;19.77;;
38083;SDS011;23894;51.466;7.444;2023-12-07T02:58:20;35.70;;;20.75;;
38083;SDS011;23894;51.466;7.444;2023-12-07T03:00:21;31.50;;;19.75;;
38083;SDS011;23894;51.466;7.444;2023-12-07T03:02:22;29.27;;;18.63;;
38083;SDS011;23894;51.466;7.444;2023-12-07T03:04:23;29.48;;;18.65;;
38083;SDS011;23894;51.466;7.444;2023-12-07T03:06:24;30.63;;;18.77;;
38083;SDS011;23894;51.466;7.444;2023-12-07T03:08:25;31.20;;;18.88;;
38083;SDS011;23894;51.466;7.444;2023-12-07T03:10:28;30.15;;;18.55;;
38083;SDS011;23894;51.466;7.444;2023-12-07T03:12:29;30.15;;;18.38;;
38083;SDS011;23894;51.466;7.444;2023-12-07T03:14:30;32.83;;;19.00;;
38083;SDS011;23894;51.466;7.444;2023-12-07T03:16:30;31.58;;;19.33;;
38083;SDS011;23894;51.466;7.444;2023-12-07T03:18:31;29.63;;;18.20;;
38083;SDS011;23894;51.466;7.444;2023-12-07T03:20:33;29.70;;;18.93;;
38083;SDS011;23894;51.466;7.444;2023-12-07T03:22:34;28.63;;;17.92;;
38083;SDS011;23894;51.466;7.444;2023-12-07T03:24:36;29.23;;;18.60;;
38083;SDS011;23894;51.466;7.444;2023-12-07T03:26:37;30.42;;;17.92;;
38083;SDS011;23894;51.466;7.444;2023-12-07T03:28:38;29.60;;;18.38;;
38083;SDS011;23894;51.466;7.444;2023-12-07T03:30:39;28.35;;;18.30;;
38083;SDS011;23894;51.466;7.444;2023-12-07T03:32:40;27.98;;;18.08;;
38083;SDS011;23894;51.466;7.444;2023-12-07T03:34:41;25.48;;;16.70;;
38083;SDS011;23894;51.466;7.444;2023-12-07T03:36:44;31.52;;;18.25;;
38083;SDS011;23894;51.466;7.444;2023-12-07T03:38:46;28.40;;;18.45;;
38083;SDS011;23894;51.466;7.444;2023-12-07T03:40:47;30.45;;;18.65;;
38083;SDS011;23894;51.466;7.444;2023-12-07T03:42:49;29.20;;;18.90;;
38083;SDS011;23894;51.466;7.444;2023-12-07T03:44:50;29.95;;;19.10;;
38083;SDS011;23894;51.466;7.444;2023-12-07T03:46:51;32.40;;;19.63;;
38083;SDS011;23894;51.466;7.444;2023-12-07T03:48:52;31.33;;;19.95;;
38083;SDS011;23894;51.466;7.444;2023-12-07T03:50:53;32.10;;;19.40;;
38083;SDS011;23894;51.466;7.444;2023-12-07T03:52:54;31.50;;;19.60;;
38083;SDS011;23894;51.466;7.444;2023-12-07T03:54:55;30.60;;;18.00;;
38083;SDS011;23894;51.466;7.444;2023-12-07T03:56:56;28.67;;;18.48;;
38083;SDS011;23894;51.466;7.444;2023-12-07T03:58:57;31.50;;;19.83;;
38083;SDS011;23894;51.466;7.444;2023-12-07T04:00:58;28.13;;;18.40;;
38083;SDS011;23894;51.466;7.444;2023-12-07T04:02:59;27.95;;;17.63;;
38083;SDS011;23894;51.466;7.444;2023-12-07T04:05:00;27.30;;;16.88;;
38083;SDS011;23894;51.466;7.444;2023-12-07T04:07:02;27.58;;;16.92;;
38083;SDS011;23894;51.466;7.444;2023-12-07T04:09:03;26.80;;;16.55;;
38083;SDS011;23894;51.466;7.444;2023-12-07T04:11:04;27.50;;;16.58;;
38083;SDS011;23894;51.466;7.444;2023-12-07T04:13:05;27.30;;;17.90;;
38083;SDS011;23894;51.466;7.444;2023-12-07T04:15:06;29.45;;;18.20;;
38083;SDS011;23894;51.466;7.444;2023-12-07T04:17:07;24.08;;;16.58;;
38083;SDS011;23894;51.466;7.444;2023-12-07T04:19:08;27.25;;;16.48;;
38083;SDS011;23894;51.466;7.444;2023-12-07T04:21:09;23.80;;;15.88;;
38083;SDS011;23894;51.466;7.444;2023-12-07T04:23:10;26.73;;;16.90;;
38083;SDS011;23894;51.466;7.444;2023-12-07T04:25:11;28.27;;;17.55;;
38083;SDS011;23894;51.466;7.444;2023-12-07T04:27:12;27.33;;;16.88;;
38083;SDS011;23894;51.466;7.444;2023-12-07T04:29:13;26.37;;;16.63;;
38083;SDS011;23894;51.466;7.444;2023-12-07T04:31:14;26.75;;;17.15;;
38083;SDS011;23894;51.466;7.444;2023-12-07T04:33:15;24.33;;;16.27;;
38083;SDS011;23894;51.466;7.444;2023-12-07T04:35:16;29.30;;;17.02;;
38083;SDS011;23894;51.466;7.444;2023-12-07T04:37:17;29.38;;;17.33;;
38083;SDS011;23894;51.466;7.444;2023-12-07T04:39:18;26.48;;;17.05;;
38083;SDS011;23894;51.466;7.444;2023-12-07T04:41:19;25.27;;;15.95;;
38083;SDS011;23894;51.466;7.444;2023-12-07T04:43:20;27.00;;;16.77;;
38083;SDS011;23894;51.466;7.444;2023-12-07T04:45:21;31.75;;;19.92;;
38083;SDS011;23894;51.466;7.444;2023-12-07T04:47:22;28.02;;;17.92;;
38083;SDS011;23894;51.466;7.444;2023-12-07T04:49:23;28.67;;;17.85;;
38083;SDS011;23894;51.466;7.444;2023-12-07T04:51:24;29.02;;;18.08;;
38083;SDS011;23894;51.466;7.444;2023-12-07T04:53:25;31.17;;;18.88;;
38083;SDS011;23894;51.466;7.444;2023-12-07T04:55:26;30.63;;;18.63;;
38083;SDS011;23894;51.466;7.444;2023-12-07T04:57:27;32.60;;;18.80;;
38083;SDS011;23894;51.466;7.444;2023-12-07T04:59:28;31.65;;;18.67;;
38083;SDS011;23894;51.466;7.444;2023-12-07T05:01:29;29.42;;;17.85;;
38083;SDS011;23894;51.466;7.444;2023-12-07T05:03:31;29.75;;;17.77;;
38083;SDS011;23894;51.466;7.444;2023-12-07T05:05:32;29.17;;;17.25;;
38083;SDS011;23894;51.466;7.444;2023-12-07T05:07:33;28.80;;;18.65;;
38083;SDS011;23894;51.466;7.444;2023-12-07T05:09:34;27.02;;;17.92;;
38083;SDS011;23894;51.466;7.444;2023-12-07T05:11:35;28.05;;;18.55;;
38083;SDS011;23894;51.466;7.444;2023-12-07T05:13:36;29.00;;;17.92;;
38083;SDS011;23894;51.466;7.444;2023-12-07T05:15:37;28.30;;;18.38;;
38083;SDS011;23894;51.466;7.444;2023-12-07T05:17:38;29.08;;;18.45;;
38083;SDS011;23894;51.466;7.444;2023-12-07T05:19:39;27.17;;;17.20;;
38083;SDS011;23894;51.466;7.444;2023-12-07T05:21:40;29.10;;;16.20;;
38083;SDS011;23894;51.466;7.444;2023-12-07T05:23:41;25.33;;;16.52;;
38083;SDS011;23894;51.466;7.444;2023-12-07T05:25:42;26.42;;;16.63;;
38083;SDS011;23894;51.466;7.444;2023-12-07T05:27:43;26.20;;;16.83;;
38083;SDS011;23894;51.466;7.444;2023-12-07T05:29:44;28.70;;;18.23;;
38083;SDS011;23894;51.466;7.444;2023-12-07T05:31:45;29.65;;;18.38;;
38083;SDS011;23894;51.466;7.444;2023-12-07T05:33:49;27.42;;;16.83;;
38083;SDS011;23894;51.466;7.444;2023-12-07T05:35:50;27.10;;;17.90;;
38083;SDS011;23894;51.466;7.444;2023-12-07T05:37:51;27.50;;;17.93;;
38083;SDS011;23894;51.466;7.444;2023-12-07T05:39:52;25.07;;;16.37;;
38083;SDS011;23894;51.466;7.444;2023-12-07T05:41:53;25.58;;;16.40;;
38083;SDS011;23894;51.466;7.444;2023-12-07T05:43:54;26.13;;;16.40;;
38083;SDS011;23894;51.466;7.444;2023-12-07T05:45:55;28.25;;;17.42;;
38083;SDS011;23894;51.466;7.444;2023-12-07T05:47:56;26.20;;;16.92;;
38083;SDS011;23894;51.466;7.444;2023-12-07T05:49:57;25.25;;;16.52;;
38083;SDS011;23894;51.466;7.444;2023-12-07T05:51:59;25.30;;;15.87;;
38083;SDS011;23894;51.466;7.444;2023-12-07T05:54:00;22.30;;;13.60;;
38083;SDS011;23894;51.466;7.444;2023-12-07T05:56:03;23.15;;;15.13;;
38083;SDS011;23894;51.466;7.444;2023-12-07T05:58:04;25.98;;;15.95;;
38083;SDS011;23894;51.466;7.444;2023-12-07T06:00:06;24.45;;;14.77;;
38083;SDS011;23894;51.466;7.444;2023-12-07T06:02:09;23.85;;;14.82;;
38083;SDS011;23894;51.466;7.444;2023-12-07T06:04:10;24.60;;;15.55;;
38083;SDS011;23894;51.466;7.444;2023-12-07T06:06:12;24.25;;;15.40;;
38083;SDS011;23894;51.466;7.444;2023-12-07T06:08:13;20.20;;;13.25;;
38083;SDS011;23894;51.466;7.444;2023-12-07T06:10:14;22.63;;;14.30;;
38083;SDS011;23894;51.466;7.444;2023-12-07T06:12:15;23.37;;;13.80;;
38083;SDS011;23894;51.466;7.444;2023-12-07T06:14:16;20.83;;;14.15;;
38083;SDS011;23894;51.466;7.444;2023-12-07T06:16:17;20.73;;;13.33;;
38083;SDS011;23894;51.466;7.444;2023-12-07T06:18:18;22.73;;;14.43;;
38083;SDS011;23894;51.466;7.444;2023-12-07T06:20:20;22.48;;;14.48;;
38083;SDS011;23894;51.466;7.444;2023-12-07T06:22:20;24.13;;;13.30;;
38083;SDS011;23894;51.466;7.444;2023-12-07T06:24:21;21.52;;;13.95;;
38083;SDS011;23894;51.466;7.444;2023-12-07T06:26:24;21.23;;;13.85;;
38083;SDS011;23894;51.466;7.444;2023-12-07T06:28:26;23.63;;;14.75;;
38083;SDS011;23894;51.466;7.444;2023-12-07T06:30:27;21.58;;;14.25;;
38083;SDS011;23894;51.466;7.444;2023-12-07T06:32:28;20.05;;;13.60;;
38083;SDS011;23894;51.466;7.444;2023-12-07T06:34:28;24.70;;;14.77;;
38083;SDS011;23894;51.466;7.444;2023-12-07T06:36:29;22.48;;;14.18;;
38083;SDS011;23894;51.466;7.444;2023-12-07T06:38:30;20.30;;;13.45;;
38083;SDS011;23894;51.466;7.444;2023-12-07T06:40:31;21.10;;;14.15;;
38083;SDS011;23894;51.466;7.444;2023-12-07T06:42:32;20.67;;;13.70;;
38083;SDS011;23894;51.466;7.444;2023-12-07T06:44:33;21.47;;;13.83;;
38083;SDS011;23894;51.466;7.444;2023-12-07T06:46:34;22.30;;;14.00;;
38083;SDS011;23894;51.466;7.444;2023-12-07T06:48:35;22.70;;;15.65;;
38083;SDS011;23894;51.466;7.444;2023-12-07T06:50:36;22.40;;;14.80;;
38083;SDS011;23894;51.466;7.444;2023-12-07T06:52:37;21.88;;;14.35;;
38083;SDS011;23894;51.466;7.444;2023-12-07T06:54:38;19.77;;;13.80;;
38083;SDS011;23894;51.466;7.444;2023-12-07T06:56:39;20.35;;;13.75;;
38083;SDS011;23894;51.466;7.444;2023-12-07T06:58:40;22.30;;;14.80;;
38083;SDS011;23894;51.466;7.444;2023-12-07T07:00:41;21.33;;;14.32;;
38083;SDS011;23894;51.466;7.444;2023-12-07T07:02:42;22.73;;;14.20;;
38083;SDS011;23894;51.466;7.444;2023-12-07T07:04:43;22.48;;;14.57;;
38083;SDS011;23894;51.466;7.444;2023-12-07T07:06:44;23.02;;;13.82;;
38083;SDS011;23894;51.466;7.444;2023-12-07T07:08:45;20.40;;;13.73;;
38083;SDS011;23894;51.466;7.444;2023-12-07T07:10:46;21.10;;;14.25;;
38083;SDS011;23894;51.466;7.444;2023-12-07T07:12:47;22.67;;;15.23;;
38083;SDS011;23894;51.466;7.444;2023-12-07T07:14:48;21.80;;;14.00;;
38083;SDS011;23894;51.466;7.444;2023-12-07T07:16:49;20.55;;;13.70;;
38083;SDS011;23894;51.466;7.444;2023-12-07T07:18:50;20.08;;;13.73;;
38083;SDS011;23894;51.466;7.444;2023-12-07T07:20:51;21.00;;;14.25;;
38083;SDS011;23894;51.466;7.444;2023-12-07T07:22:52;20.20;;;14.02;;
38083;SDS011;23894;51.466;7.444;2023-12-07T07:24:53;22.40;;;14.68;;
38083;SDS011;23894;51.466;7.444;2023-12-07T07:26:54;21.05;;;13.48;;
38083;SDS011;23894;51.466;7.444;2023-12-07T07:28:55;22.25;;;14.15;;
38083;SDS011;23894;51.466;7.444;2023-12-07T07:30:56;23.40;;;15.80;;
38083;SDS011;23894;51.466;7.444;2023-12-07T07:32:57;23.83;;;14.68;;
38083;SDS011;23894;51.466;7.444;2023-12-07T07:34:59;23.60;;;14.63;;
38083;SDS011;23894;51.466;7.444;2023-12-07T07:37:01;22.45;;;14.82;;
38083;SDS011;23894;51.466;7.444;2023-12-07T07:39:03;22.52;;;15.43;;
38083;SDS011;23894;51.466;7.444;2023-12-07T07:41:07;22.40;;;14.60;;
38083;SDS011;23894;51.466;7.444;2023-12-07T07:43:09;21.87;;;14.40;;
38083;SDS011;23894;51.466;7.444;2023-12-07T07:45:10;25.43;;;15.57;;
38083;SDS011;23894;51.466;7.444;2023-12-07T07:47:11;23.08;;;14.70;;
38083;SDS011;23894;51.466;7.444;2023-12-07T07:49:12;24.73;;;14.43;;
38083;SDS011;23894;51.466;7.444;2023-12-07T07:51:13;24.15;;;15.25;;
38083;SDS011;23894;51.466;7.444;2023-12-07T07:53:14;25.30;;;14.52;;
38083;SDS011;23894;51.466;7.444;2023-12-07T07:55:16;23.52;;;15.43;;
38083;SDS011;23894;51.466;7.444;2023-12-07T07:57:18;22.67;;;14.30;;
38083;SDS011;23894;51.466;7.444;2023-12-07T07:59:20;22.02;;;14.68;;
38083;SDS011;23894;51.466;7.444;2023-12-07T08:01:21;21.92;;;14.68;;
38083;SDS011;23894;51.466;7.444;2023-12-07T08:03:21;20.10;;;13.75;;
38083;SDS011;23894;51.466;7.444;2023-12-07T08:05:24;21.58;;;14.88;;
38083;SDS011;23894;51.466;7.444;2023-12-07T08:07:26;20.38;;;14.25;;
38083;SDS011;23894;51.466;7.444;2023-12-07T08:09:27;23.67;;;15.45;;
38083;SDS011;23894;51.466;7.444;2023-12-07T08:11:28;21.83;;;13.75;;
38083;SDS011;23894;51.466;7.444;2023-12-07T08:13:29;20.92;;;14.07;;
38083;SDS011;23894;51.466;7.444;2023-12-07T08:15:30;23.15;;;14.77;;
38083;SDS011;23894;51.466;7.444;2023-12-07T08:17:32;23.98;;;14.48;;
38083;SDS011;23894;51.466;7.444;2023-12-07T08:19:33;23.17;;;14.70;;
38083;SDS011;23894;51.466;7.444;2023-12-07T08:21:34;22.92;;;14.27;;
38083;SDS011;23894;51.466;7.444;2023-12-07T08:23:35;23.63;;;15.30;;
38083;SDS011;23894;51.466;7.444;2023-12-07T08:25:38;25.00;;;15.32;;
38083;SDS011;23894;51.466;7.444;2023-12-07T08:27:40;22.85;;;14.95;;
38083;SDS011;23894;51.466;7.444;2023-12-07T08:29:41;22.80;;;15.32;;
38083;SDS011;23894;51.466;7.444;2023-12-07T08:31:42;25.48;;;15.30;;
38083;SDS011;23894;51.466;7.444;2023-12-07T08:33:43;25.20;;;15.65;;
38083;SDS011;23894;51.466;7.444;2023-12-07T08:35:45;25.83;;;15.68;;
38083;SDS011;23894;51.466;7.444;2023-12-07T08:37:49;23.30;;;15.00;;
38083;SDS011;23894;51.466;7.444;2023-12-07T08:39:51;25.83;;;15.98;;
38083;SDS011;23894;51.466;7.444;2023-12-07T08:41:52;23.08;;;15.52;;
38083;SDS011;23894;51.466;7.444;2023-12-07T08:43:53;24.40;;;15.93;;
38083;SDS011;23894;51.466;7.444;2023-12-07T08:45:55;24.43;;;16.27;;
38083;SDS011;23894;51.466;7.444;2023-12-07T08:47:58;26.90;;;17.15;;
38083;SDS011;23894;51.466;7.444;2023-12-07T08:49:59;24.27;;;15.85;;
38083;SDS011;23894;51.466;7.444;2023-12-07T08:52:00;26.60;;;17.90;;
38083;SDS011;23894;51.466;7.444;2023-12-07T08:54:01;26.30;;;17.40;;
38083;SDS011;23894;51.466;7.444;2023-12-07T08:56:04;30.13;;;17.55;;
38083;SDS011;23894;51.466;7.444;2023-12-07T08:58:05;25.05;;;17.58;;
38083;SDS011;23894;51.466;7.444;2023-12-07T09:00:06;27.60;;;17.73;;
38083;SDS011;23894;51.466;7.444;2023-12-07T09:02:07;25.35;;;17.10;;
38083;SDS011;23894;51.466;7.444;2023-12-07T09:04:08;26.88;;;18.10;;
38083;SDS011;23894;51.466;7.444;2023-12-07T09:06:09;29.20;;;19.55;;
38083;SDS011;23894;51.466;7.444;2023-12-07T09:08:11;28.98;;;19.40;;
38083;SDS011;23894;51.466;7.444;2023-12-07T09:10:14;35.37;;;21.73;;
38083;SDS011;23894;51.466;7.444;2023-12-07T09:12:15;33.50;;;21.90;;
38083;SDS011;23894;51.466;7.444;2023-12-07T09:14:17;33.83;;;21.07;;
38083;SDS011;23894;51.466;7.444;2023-12-07T09:16:18;34.92;;;22.15;;
38083;SDS011;23894;51.466;7.444;2023-12-07T09:18:21;32.27;;;20.27;;
38083;SDS011;23894;51.466;7.444;2023-12-07T09:20:23;31.77;;;19.80;;
38083;SDS011;23894;51.466;7.444;2023-12-07T09:22:24;26.13;;;17.25;;
38083;SDS011;23894;51.466;7.444;2023-12-07T09:24:25;26.80;;;18.08;;
38083;SDS011;23894;51.466;7.444;2023-12-07T09:26:26;30.50;;;19.13;;
38083;SDS011;23894;51.466;7.444;2023-12-07T09:28:27;26.58;;;17.35;;
38083;SDS011;23894;51.466;7.444;2023-12-07T09:30:28;25.63;;;17.30;;
38083;SDS011;23894;51.466;7.444;2023-12-07T09:32:29;24.90;;;16.48;;
38083;SDS011;23894;51.466;7.444;2023-12-07T09:34:30;24.63;;;16.20;;
38083;SDS011;23894;51.466;7.444;2023-12-07T09:36:31;20.80;;;13.75;;
38083;SDS011;23894;51.466;7.444;2023-12-07T09:38:32;20.87;;;14.43;;
38083;SDS011;23894;51.466;7.444;2023-12-07T09:40:33;24.43;;;16.47;;
38083;SDS011;23894;51.466;7.444;2023-12-07T09:42:35;20.38;;;13.98;;
38083;SDS011;23894;51.466;7.444;2023-12-07T09:44:39;24.00;;;15.57;;
38083;SDS011;23894;51.466;7.444;2023-12-07T09:46:40;20.23;;;14.23;;
38083;SDS011;23894;51.466;7.444;2023-12-07T09:48:42;21.63;;;14.40;;
38083;SDS011;23894;51.466;7.444;2023-12-07T09:50:45;19.85;;;14.10;;
38083;SDS011;23894;51.466;7.444;2023-12-07T09:52:47;21.85;;;13.45;;
38083;SDS011;23894;51.466;7.444;2023-12-07T09:54:48;19.48;;;13.43;;
38083;SDS011;23894;51.466;7.444;2023-12-07T09:56:49;20.55;;;13.93;;
38083;SDS011;23894;51.466;7.444;2023-12-07T09:58:53;22.27;;;13.00;;
38083;SDS011;23894;51.466;7.444;2023-12-07T10:00:54;20.10;;;13.32;;
38083;SDS011;23894;51.466;7.444;2023-12-07T10:02:57;18.25;;;12.65;;
38083;SDS011;23894;51.466;7.444;2023-12-07T10:05:07;19.98;;;13.30;;
38083;SDS011;23894;51.466;7.444;2023-12-07T10:07:11;20.92;;;13.68;;
38083;SDS011;23894;51.466;7.444;2023-12-07T10:09:13;20.95;;;13.55;;
38083;SDS011;23894;51.466;7.444;2023-12-07T10:11:14;21.23;;;14.30;;
38083;SDS011;23894;51.466;7.444;2023-12-07T10:13:16;20.87;;;13.93;;
38083;SDS011;23894;51.466;7.444;2023-12-07T10:15:18;19.10;;;13.70;;
38083;SDS011;23894;51.466;7.444;2023-12-07T10:17:20;21.50;;;14.10;;
38083;SDS011;23894;51.466;7.444;2023-12-07T10:19:22;18.20;;;12.50;;
38083;SDS011;23894;51.466;7.444;2023-12-07T10:21:32;19.60;;;13.65;;
38083;SDS011;23894;51.466;7.444;2023-12-07T10:23:33;19.38;;;12.57;;
38083;SDS011;23894;51.466;7.444;2023-12-07T10:25:41;18.27;;;11.93;;
38083;SDS011;23894;51.466;7.444;2023-12-07T10:27:44;16.17;;;11.27;;
38083;SDS011;23894;51.466;7.444;2023-12-07T10:29:45;17.73;;;11.82;;
38083;SDS011;23894;51.466;7.444;2023-12-07T10:31:46;17.15;;;11.27;;
38083;SDS011;23894;51.466;7.444;2023-12-07T10:33:49;15.90;;;10.40;;
38083;SDS011;23894;51.466;7.444;2023-12-07T10:35:52;17.38;;;10.25;;
38083;SDS011;23894;51.466;7.444;2023-12-07T10:37:54;16.42;;;10.07;;
38083;SDS011;23894;51.466;7.444;2023-12-07T10:39:56;15.30;;;10.70;;
38083;SDS011;23894;51.466;7.444;2023-12-07T10:41:59;15.45;;;9.80;;
38083;SDS011;23894;51.466;7.444;2023-12-07T10:44:04;13.73;;;9.18;;
38083;SDS011;23894;51.466;7.444;2023-12-07T10:46:05;13.35;;;8.60;;
38083;SDS011;23894;51.466;7.444;2023-12-07T10:48:08;15.57;;;9.57;;
38083;SDS011;23894;51.466;7.444;2023-12-07T10:50:10;13.43;;;8.70;;
38083;SDS011;23894;51.466;7.444;2023-12-07T10:52:12;13.05;;;8.98;;
38083;SDS011;23894;51.466;7.444;2023-12-07T10:54:16;12.88;;;8.57;;
38083;SDS011;23894;51.466;7.444;2023-12-07T10:56:28;15.37;;;9.00;;
38083;SDS011;23894;51.466;7.444;2023-12-07T10:58:30;13.95;;;8.73;;
38083;SDS011;23894;51.466;7.444;2023-12-07T11:00:35;13.07;;;8.70;;
38083;SDS011;23894;51.466;7.444;2023-12-07T11:02:36;12.75;;;8.27;;
38083;SDS011;23894;51.466;7.444;2023-12-07T11:04:39;14.98;;;8.15;;
38083;SDS011;23894;51.466;7.444;2023-12-07T11:06:42;12.63;;;8.00;;
38083;SDS011;23894;51.466;7.444;2023-12-07T11:08:46;11.70;;;7.72;;
38083;SDS011;23894;51.466;7.444;2023-12-07T11:13:26;10.73;;;6.90;;
38083;SDS011;23894;51.466;7.444;2023-12-07T11:15:29;12.03;;;7.37;;
38083;SDS011;23894;51.466;7.444;2023-12-07T11:17:47;11.70;;;7.13;;
38083;SDS011;23894;51.466;7.444;2023-12-07T11:19:48;11.82;;;8.20;;
38083;SDS011;23894;51.466;7.444;2023-12-07T11:21:51;12.57;;;7.85;;
38083;SDS011;23894;51.466;7.444;2023-12-07T11:23:52;12.63;;;7.85;;
38083;SDS011;23894;51.466;7.444;2023-12-07T11:25:55;11.73;;;7.47;;
38083;SDS011;23894;51.466;7.444;2023-12-07T11:28:01;12.38;;;7.47;;
38083;SDS011;23894;51.466;7.444;2023-12-07T11:30:02;11.80;;;7.53;;
38083;SDS011;23894;51.466;7.444;2023-12-07T11:32:04;11.98;;;7.03;;
38083;SDS011;23894;51.466;7.444;2023-12-07T11:34:06;10.60;;;7.38;;
38083;SDS011;23894;51.466;7.444;2023-12-07T11:36:13;13.30;;;7.53;;
38083;SDS011;23894;51.466;7.444;2023-12-07T11:38:14;12.07;;;7.13;;
38083;SDS011;23894;51.466;7.444;2023-12-07T11:40:19;13.07;;;7.30;;
38083;SDS011;23894;51.466;7.444;2023-12-07T11:42:21;11.15;;;7.40;;
38083;SDS011;23894;51.466;7.444;2023-12-07T11:44:32;10.60;;;6.30;;
38083;SDS011;23894;51.466;7.444;2023-12-07T11:46:36;11.75;;;6.72;;
38083;SDS011;23894;51.466;7.444;2023-12-07T11:48:37;10.65;;;6.53;;
38083;SDS011;23894;51.466;7.444;2023-12-07T11:52:59;11.00;;;6.78;;
38083;SDS011;23894;51.466;7.444;2023-12-07T11:55:01;10.98;;;6.90;;
38083;SDS011;23894;51.466;7.444;2023-12-07T11:57:02;12.10;;;6.65;;
38083;SDS011;23894;51.466;7.444;2023-12-07T11:59:04;9.70;;;6.13;;